Time,TemperatureF,DewpointF,PressureIn,WindDirection,WindDirectionDegrees,WindSpeedMPH,WindSpeedGustMPH,Humidity,HourlyPrecipIn,Conditions,Clouds,dailyrainin,SoftwareType,DateUTC
2013-06-26 00:04:00,60.1,49.1,30.32,NNW,333,6.0,7.0,67,0.00,,,0.00,meteohub,2013-06-26 07:04:00,
2013-06-26 00:09:00,60.1,49.1,30.33,WNW,295,5.0,7.0,67,0.00,,,0.00,meteohub,2013-06-26 07:09:00,
2013-06-26 00:14:00,60.1,49.1,30.32,NW,313,10.0,10.0,67,0.00,,,0.00,meteohub,2013-06-26 07:14:00,
2013-06-26 00:19:00,59.9,48.9,30.32,NW,314,5.0,10.0,67,0.00,,,0.00,meteohub,2013-06-26 07:19:00,
2013-06-26 00:24:00,59.7,48.7,30.33,NW,306,5.0,10.0,67,0.00,,,0.00,meteohub,2013-06-26 07:24:00,
2013-06-26 00:29:00,59.5,48.9,30.32,NW,317,6.0,10.0,68,0.00,,,0.00,meteohub,2013-06-26 07:29:00,
2013-06-26 00:34:00,59.5,48.9,30.32,WNW,301,2.0,10.0,68,0.00,,,0.00,meteohub,2013-06-26 07:34:00,
2013-06-26 00:39:00,59.4,49.1,30.33,West,271,8.0,9.0,69,0.00,,,0.00,meteohub,2013-06-26 07:39:00,
2013-06-26 00:44:00,59.0,48.9,30.32,WNW,298,4.0,8.0,69,0.00,,,0.00,meteohub,2013-06-26 07:44:00,
2013-06-26 00:49:00,58.8,49.1,30.32,WNW,300,9.0,9.0,70,0.00,,,0.00,meteohub,2013-06-26 07:49:00,
2013-06-26 00:54:00,58.6,48.9,30.32,WNW,299,3.0,8.0,70,0.00,,,0.00,meteohub,2013-06-26 07:54:00,
2013-06-26 00:59:00,58.8,49.1,30.32,NW,312,8.0,10.0,70,0.00,,,0.00,meteohub,2013-06-26 07:59:00,
2013-06-26 01:04:00,58.8,48.7,30.32,West,275,4.0,10.0,69,0.00,,,0.00,meteohub,2013-06-26 08:04:00,
2013-06-26 01:10:00,58.8,48.7,30.32,WNW,300,5.0,10.0,69,0.00,,,0.00,meteohub,2013-06-26 08:10:00,
2013-06-26 01:15:00,58.6,48.9,30.32,WNW,292,8.0,9.0,70,0.00,,,0.00,meteohub,2013-06-26 08:15:00,
2013-06-26 01:20:00,59.0,48.9,30.32,SW,236,6.0,12.0,69,0.00,,,0.00,meteohub,2013-06-26 08:20:00,
2013-06-26 01:25:00,60.1,49.1,30.31,WNW,301,10.0,13.0,67,0.00,,,0.00,meteohub,2013-06-26 08:25:00,
2013-06-26 01:30:00,60.3,48.0,30.32,WSW,244,7.0,15.0,64,0.00,,,0.00,meteohub,2013-06-26 08:30:00,
2013-06-26 01:35:00,60.3,48.4,30.31,West,267,10.0,15.0,65,0.00,,,0.00,meteohub,2013-06-26 08:35:00,
2013-06-26 01:40:00,60.3,48.4,30.31,West,268,7.0,15.0,65,0.00,,,0.00,meteohub,2013-06-26 08:40:00,
2013-06-26 01:45:00,60.1,48.7,30.31,WNW,298,9.0,15.0,66,0.00,,,0.00,meteohub,2013-06-26 08:45:00,
2013-06-26 01:50:00,59.7,48.4,30.31,NW,307,8.0,15.0,66,0.00,,,0.00,meteohub,2013-06-26 08:50:00,
2013-06-26 01:55:00,59.5,48.2,30.31,WNW,296,9.0,14.0,66,0.00,,,0.00,meteohub,2013-06-26 08:55:00,
2013-06-26 02:00:00,59.5,48.2,30.31,WNW,297,8.0,13.0,66,0.00,,,0.00,meteohub,2013-06-26 09:00:00,
2013-06-26 02:05:00,59.4,47.7,30.31,SSE,159,2.0,13.0,65,0.00,,,0.00,meteohub,2013-06-26 09:05:00,
2013-06-26 02:10:00,59.4,47.7,30.31,South,173,1.0,13.0,65,0.00,,,0.00,meteohub,2013-06-26 09:10:00,
2013-06-26 02:15:00,59.2,47.5,30.32,South,173,5.0,12.0,65,0.00,,,0.00,meteohub,2013-06-26 09:15:00,
2013-06-26 02:20:00,58.8,47.5,30.32,SSE,166,1.0,6.0,66,0.00,,,0.00,meteohub,2013-06-26 09:20:00,
2013-06-26 02:25:00,58.3,47.3,30.31,SSE,166,4.0,6.0,67,0.00,,,0.00,meteohub,2013-06-26 09:25:00,
2013-06-26 02:30:00,57.6,47.1,30.32,SSE,166,1.0,6.0,68,0.00,,,0.00,meteohub,2013-06-26 09:30:00,
2013-06-26 02:35:00,57.0,46.6,30.31,South,170,5.0,6.0,68,0.00,,,0.00,meteohub,2013-06-26 09:35:00,
2013-06-26 02:40:00,56.8,46.4,30.31,SW,217,5.0,6.0,68,0.00,,,0.00,meteohub,2013-06-26 09:40:00,
2013-06-26 02:45:00,56.8,46.0,30.31,WSW,240,1.0,8.0,67,0.00,,,0.00,meteohub,2013-06-26 09:45:00,
2013-06-26 02:50:00,57.0,46.6,30.31,SW,229,2.0,8.0,68,0.00,,,0.00,meteohub,2013-06-26 09:50:00,
2013-06-26 02:55:00,57.0,46.6,30.31,SW,229,0.0,8.0,68,0.00,,,0.00,meteohub,2013-06-26 09:55:00,
2013-06-26 03:00:00,56.7,46.2,30.31,SW,231,2.0,3.0,68,0.00,,,0.00,meteohub,2013-06-26 10:00:00,
2013-06-26 03:05:00,56.3,46.6,30.31,SW,235,2.0,5.0,70,0.00,,,0.00,meteohub,2013-06-26 10:05:00,
2013-06-26 03:10:00,55.9,46.2,30.31,SW,235,3.0,5.0,70,0.00,,,0.00,meteohub,2013-06-26 10:10:00,
2013-06-26 03:15:00,55.8,46.0,30.31,SW,236,0.0,5.0,70,0.00,,,0.00,meteohub,2013-06-26 10:15:00,
2013-06-26 03:20:00,56.3,46.9,30.31,SW,236,1.0,4.0,71,0.00,,,0.00,meteohub,2013-06-26 10:20:00,
2013-06-26 03:25:00,56.7,46.9,30.31,SSE,163,5.0,6.0,70,0.00,,,0.00,meteohub,2013-06-26 10:25:00,
2013-06-26 03:30:00,56.7,46.6,30.31,SSE,162,2.0,6.0,69,0.00,,,0.00,meteohub,2013-06-26 10:30:00,
2013-06-26 03:35:00,56.3,46.6,30.31,SSE,165,5.0,6.0,70,0.00,,,0.00,meteohub,2013-06-26 10:35:00,
2013-06-26 03:40:00,56.1,46.4,30.31,SSE,166,1.0,6.0,70,0.00,,,0.00,meteohub,2013-06-26 10:40:00,
2013-06-26 03:45:00,55.9,46.8,30.31,SSE,166,0.0,6.0,71,0.00,,,0.00,meteohub,2013-06-26 10:45:00,
2013-06-26 03:51:00,55.9,46.8,30.31,SSE,166,0.0,6.0,71,0.00,,,0.00,meteohub,2013-06-26 10:51:00,
2013-06-26 03:56:00,55.9,47.1,30.32,SSE,165,1.0,6.0,72,0.00,,,0.00,meteohub,2013-06-26 10:56:00,
2013-06-26 04:01:00,55.9,46.8,30.32,SE,144,2.0,6.0,71,0.00,,,0.00,meteohub,2013-06-26 11:01:00,
2013-06-26 04:06:00,55.9,47.1,30.32,West,281,3.0,6.0,72,0.00,,,0.00,meteohub,2013-06-26 11:06:00,
2013-06-26 04:11:00,55.8,46.9,30.32,WNW,285,2.0,7.0,72,0.00,,,0.00,meteohub,2013-06-26 11:11:00,
2013-06-26 04:16:00,55.6,46.8,30.32,NW,321,3.0,7.0,72,0.00,,,0.00,meteohub,2013-06-26 11:16:00,
2013-06-26 04:21:00,55.8,46.9,30.32,NW,321,2.0,7.0,72,0.00,,,0.00,meteohub,2013-06-26 11:21:00,
2013-06-26 04:26:00,55.8,46.9,30.32,NW,321,1.0,6.0,72,0.00,,,0.00,meteohub,2013-06-26 11:26:00,
2013-06-26 04:31:00,55.6,46.8,30.32,NW,321,0.0,4.0,72,0.00,,,0.00,meteohub,2013-06-26 11:31:00,
2013-06-26 04:36:00,55.4,46.9,30.32,NW,325,2.0,3.0,73,0.00,,,0.00,meteohub,2013-06-26 11:36:00,
2013-06-26 04:41:00,55.6,46.8,30.32,SW,236,0.0,5.0,72,0.00,,,0.00,meteohub,2013-06-26 11:41:00,
2013-06-26 04:46:00,55.4,46.9,30.33,SW,236,4.0,5.0,73,0.00,,,0.00,meteohub,2013-06-26 11:46:00,
2013-06-26 04:51:00,55.4,46.6,30.32,WSW,244,2.0,6.0,72,0.00,,,0.00,meteohub,2013-06-26 11:51:00,
2013-06-26 04:56:00,55.6,46.8,30.33,WSW,241,3.0,6.0,72,0.00,,,0.00,meteohub,2013-06-26 11:56:00,
2013-06-26 05:01:00,55.6,46.8,30.33,NNW,336,0.0,6.0,72,0.00,,,0.00,meteohub,2013-06-26 12:01:00,
2013-06-26 05:06:00,55.0,46.6,30.33,SW,219,1.0,6.0,73,0.00,,,0.00,meteohub,2013-06-26 12:06:00,
2013-06-26 05:11:00,55.0,46.6,30.33,SW,225,2.0,7.0,73,0.00,,,0.00,meteohub,2013-06-26 12:11:00,
2013-06-26 05:16:00,55.0,46.6,30.33,SW,227,3.0,7.0,73,0.00,,,0.00,meteohub,2013-06-26 12:16:00,
2013-06-26 05:21:00,54.9,46.8,30.33,SW,227,3.0,7.0,74,0.00,,,0.00,meteohub,2013-06-26 12:21:00,
2013-06-26 05:26:00,54.9,46.4,30.33,SW,228,5.0,5.0,73,0.00,,,0.00,meteohub,2013-06-26 12:26:00,
2013-06-26 05:31:00,54.9,46.4,30.33,SW,236,0.0,7.0,73,0.00,,,0.00,meteohub,2013-06-26 12:31:00,
2013-06-26 05:36:00,54.7,46.6,30.34,SW,236,2.0,7.0,74,0.00,,,0.00,meteohub,2013-06-26 12:36:00,
2013-06-26 05:41:00,54.7,46.6,30.34,SW,236,3.0,7.0,74,0.00,,,0.00,meteohub,2013-06-26 12:41:00,
2013-06-26 05:46:00,54.7,46.9,30.34,SW,232,1.0,4.0,75,0.00,,,0.00,meteohub,2013-06-26 12:46:00,
2013-06-26 05:51:00,54.9,46.8,30.34,SW,232,3.0,6.0,74,0.00,,,0.00,meteohub,2013-06-26 12:51:00,
2013-06-26 05:56:00,55.0,47.3,30.34,WNW,298,2.0,6.0,75,0.00,,,0.00,meteohub,2013-06-26 12:56:00,
2013-06-26 06:01:00,55.2,47.5,30.34,WNW,301,3.0,5.0,75,0.00,,,0.00,meteohub,2013-06-26 13:01:00,
2013-06-26 06:06:00,55.9,47.8,30.34,WNW,302,0.0,5.0,74,0.00,,,0.00,meteohub,2013-06-26 13:06:00,
2013-06-26 06:12:00,56.7,48.0,30.34,WNW,302,1.0,4.0,73,0.00,,,0.00,meteohub,2013-06-26 13:12:00,
2013-06-26 06:17:00,57.4,48.4,30.35,WNW,302,3.0,4.0,72,0.00,,,0.00,meteohub,2013-06-26 13:17:00,
2013-06-26 06:22:00,57.9,48.6,30.34,WNW,302,0.0,4.0,71,0.00,,,0.00,meteohub,2013-06-26 13:22:00,
2013-06-26 06:27:00,58.5,48.7,30.35,WNW,303,3.0,4.0,70,0.00,,,0.00,meteohub,2013-06-26 13:27:00,
2013-06-26 06:32:00,59.5,48.9,30.35,NNW,342,3.0,5.0,68,0.00,,,0.00,meteohub,2013-06-26 13:32:00,
2013-06-26 06:37:00,60.8,49.5,30.35,NNW,342,1.0,6.0,66,0.00,,,0.00,meteohub,2013-06-26 13:37:00,
2013-06-26 06:42:00,61.7,48.9,30.35,North,0,6.0,6.0,63,0.00,,,0.00,meteohub,2013-06-26 13:42:00,
2013-06-26 06:47:00,62.4,49.3,30.35,North,5,6.0,9.0,62,0.00,,,0.00,meteohub,2013-06-26 13:47:00,
2013-06-26 06:52:00,63.1,49.1,30.35,North,5,3.0,9.0,60,0.00,,,0.00,meteohub,2013-06-26 13:52:00,
2013-06-26 06:57:00,63.7,49.1,30.35,North,5,3.0,9.0,59,0.00,,,0.00,meteohub,2013-06-26 13:57:00,
2013-06-26 07:02:00,64.0,49.5,30.35,North,5,1.0,6.0,59,0.00,,,0.00,meteohub,2013-06-26 14:02:00,
2013-06-26 07:07:00,64.6,49.5,30.35,NE,51,1.0,6.0,58,0.00,,,0.00,meteohub,2013-06-26 14:07:00,
2013-06-26 07:12:00,65.3,49.6,30.35,NE,51,0.0,5.0,57,0.00,,,0.00,meteohub,2013-06-26 14:12:00,
2013-06-26 07:17:00,66.0,50.4,30.36,NE,55,0.0,4.0,57,0.00,,,0.00,meteohub,2013-06-26 14:17:00,
2013-06-26 07:22:00,66.6,50.4,30.36,NE,55,3.0,4.0,56,0.00,,,0.00,meteohub,2013-06-26 14:22:00,
2013-06-26 07:27:00,66.6,49.8,30.36,NE,55,1.0,4.0,55,0.00,,,0.00,meteohub,2013-06-26 14:27:00,
2013-06-26 07:32:00,66.7,50.5,30.36,ENE,68,3.0,5.0,56,0.00,,,0.00,meteohub,2013-06-26 14:32:00,
2013-06-26 07:37:00,66.9,50.7,30.36,ESE,103,3.0,5.0,56,0.00,,,0.00,meteohub,2013-06-26 14:37:00,
2013-06-26 07:42:00,66.9,50.2,30.37,ESE,105,3.0,7.0,55,0.00,,,0.00,meteohub,2013-06-26 14:42:00,
2013-06-26 07:47:00,67.1,49.8,30.37,East,95,3.0,8.0,54,0.00,,,0.00,meteohub,2013-06-26 14:47:00,
2013-06-26 07:52:00,67.3,49.6,30.37,East,95,1.0,8.0,53,0.00,,,0.00,meteohub,2013-06-26 14:52:00,
2013-06-26 07:57:00,67.5,50.7,30.37,ESE,123,1.0,8.0,55,0.00,,,0.00,meteohub,2013-06-26 14:57:00,
2013-06-26 08:02:00,67.6,49.8,30.37,ESE,121,2.0,7.0,53,0.00,,,0.00,meteohub,2013-06-26 15:02:00,
2013-06-26 08:07:00,67.6,48.9,30.37,ENE,60,3.0,7.0,51,0.00,,,0.00,meteohub,2013-06-26 15:07:00,
2013-06-26 08:12:00,67.8,50.5,30.37,ENE,61,1.0,5.0,54,0.00,,,0.00,meteohub,2013-06-26 15:12:00,
2013-06-26 08:17:00,68.0,49.3,30.38,ENE,61,0.0,5.0,51,0.00,,,0.00,meteohub,2013-06-26 15:17:00,
2013-06-26 08:22:00,68.2,50.4,30.38,ENE,61,1.0,4.0,53,0.00,,,0.00,meteohub,2013-06-26 15:22:00,
2013-06-26 08:27:00,68.2,50.4,30.38,ENE,60,0.0,2.0,53,0.00,,,0.00,meteohub,2013-06-26 15:27:00,
2013-06-26 08:32:00,67.8,50.0,30.38,ENE,73,2.0,4.0,53,0.00,,,0.00,meteohub,2013-06-26 15:32:00,
2013-06-26 08:37:00,67.8,49.6,30.38,ENE,74,0.0,4.0,52,0.00,,,0.00,meteohub,2013-06-26 15:37:00,
2013-06-26 08:42:00,68.4,49.5,30.38,ENE,74,3.0,4.0,51,0.00,,,0.00,meteohub,2013-06-26 15:42:00,
2013-06-26 08:47:00,68.5,50.2,30.38,North,5,5.0,6.0,52,0.00,,,0.00,meteohub,2013-06-26 15:47:00,
2013-06-26 08:52:00,68.2,49.3,30.38,ENE,57,2.0,8.0,51,0.00,,,0.00,meteohub,2013-06-26 15:52:00,
2013-06-26 08:57:00,68.2,49.8,30.38,NE,51,4.0,8.0,52,0.00,,,0.00,meteohub,2013-06-26 15:57:00,
2013-06-26 09:02:00,68.7,49.3,30.38,NE,47,1.0,8.0,50,0.00,,,0.00,meteohub,2013-06-26 16:02:00,
2013-06-26 09:07:00,69.1,49.6,30.38,NE,43,1.0,7.0,50,0.00,,,0.00,meteohub,2013-06-26 16:07:00,
2013-06-26 09:12:00,70.3,50.9,30.38,ESE,109,8.0,8.0,50,0.00,,,0.00,meteohub,2013-06-26 16:12:00,
2013-06-26 09:17:00,70.3,50.4,30.38,ENE,74,2.0,8.0,49,0.00,,,0.00,meteohub,2013-06-26 16:17:00,
2013-06-26 09:22:00,71.4,50.7,30.38,SE,142,6.0,9.0,48,0.00,,,0.00,meteohub,2013-06-26 16:22:00,
2013-06-26 09:27:00,71.2,49.5,30.38,ENE,67,3.0,9.0,46,0.00,,,0.00,meteohub,2013-06-26 16:27:00,
2013-06-26 09:32:00,71.2,50.0,30.38,ESE,115,2.0,9.0,47,0.00,,,0.00,meteohub,2013-06-26 16:32:00,
2013-06-26 09:37:00,71.2,49.5,30.38,SE,131,1.0,7.0,46,0.00,,,0.00,meteohub,2013-06-26 16:37:00,
2013-06-26 09:42:00,71.4,50.2,30.38,ENE,68,3.0,7.0,47,0.00,,,0.00,meteohub,2013-06-26 16:42:00,
2013-06-26 09:47:00,70.9,49.1,30.37,ESE,114,3.0,7.0,46,0.00,,,0.00,meteohub,2013-06-26 16:47:00,
2013-06-26 09:52:00,71.8,49.3,30.38,NE,55,5.0,7.0,45,0.00,,,0.00,meteohub,2013-06-26 16:52:00,
2013-06-26 09:57:00,71.8,48.0,30.37,East,87,4.0,8.0,43,0.00,,,0.00,meteohub,2013-06-26 16:57:00,
2013-06-26 10:02:00,72.0,48.2,30.38,NW,321,1.0,8.0,43,0.00,,,0.00,meteohub,2013-06-26 17:02:00,
2013-06-26 10:07:00,73.0,49.3,30.37,ESE,114,3.0,8.0,43,0.00,,,0.00,meteohub,2013-06-26 17:07:00,
2013-06-26 10:12:00,73.4,48.2,30.37,SE,134,1.0,8.0,41,0.00,,,0.00,meteohub,2013-06-26 17:12:00,
2013-06-26 10:17:00,72.9,47.8,30.37,NNE,31,2.0,8.0,41,0.00,,,0.00,meteohub,2013-06-26 17:17:00,
2013-06-26 10:22:00,74.5,49.3,30.37,South,171,2.0,8.0,41,0.00,,,0.00,meteohub,2013-06-26 17:22:00,
2013-06-26 10:27:00,74.5,49.8,30.37,ESE,115,2.0,8.0,42,0.00,,,0.00,meteohub,2013-06-26 17:27:00,
2013-06-26 10:32:00,74.3,49.1,30.37,NE,51,6.0,7.0,41,0.00,,,0.00,meteohub,2013-06-26 17:32:00,
2013-06-26 10:37:00,73.9,49.5,30.37,ENE,61,5.0,9.0,42,0.00,,,0.00,meteohub,2013-06-26 17:37:00,
2013-06-26 10:42:00,75.0,49.1,30.37,ENE,67,4.0,9.0,40,0.00,,,0.00,meteohub,2013-06-26 17:42:00,
2013-06-26 10:47:00,74.8,48.9,30.37,NE,37,4.0,10.0,40,0.00,,,0.00,meteohub,2013-06-26 17:47:00,
2013-06-26 10:52:00,75.7,49.6,30.37,NE,38,5.0,10.0,40,0.00,,,0.00,meteohub,2013-06-26 17:52:00,
2013-06-26 10:58:00,75.7,49.1,30.37,NE,34,3.0,10.0,39,0.00,,,0.00,meteohub,2013-06-26 17:58:00,
2013-06-26 11:03:00,76.5,50.4,30.37,East,83,5.0,11.0,40,0.00,,,0.00,meteohub,2013-06-26 18:03:00,
2013-06-26 11:08:00,76.5,48.9,30.37,ENE,77,4.0,13.0,38,0.00,,,0.00,meteohub,2013-06-26 18:08:00,
2013-06-26 11:13:00,76.1,48.6,30.37,ESE,111,4.0,13.0,38,0.00,,,0.00,meteohub,2013-06-26 18:13:00,
2013-06-26 11:18:00,78.3,49.8,30.37,SE,132,2.0,13.0,37,0.00,,,0.00,meteohub,2013-06-26 18:18:00,
2013-06-26 11:23:00,79.0,50.5,30.37,East,94,6.0,9.0,37,0.00,,,0.00,meteohub,2013-06-26 18:23:00,
2013-06-26 11:28:00,79.3,49.3,30.37,NE,52,5.0,12.0,35,0.00,,,0.00,meteohub,2013-06-26 18:28:00,
2013-06-26 11:33:00,78.8,47.3,30.37,ENE,57,4.0,12.0,33,0.00,,,0.00,meteohub,2013-06-26 18:33:00,
2013-06-26 11:38:00,78.6,47.8,30.37,ESE,119,2.0,12.0,34,0.00,,,0.00,meteohub,2013-06-26 18:38:00,
2013-06-26 11:43:00,80.2,49.3,30.37,SE,130,7.0,10.0,34,0.00,,,0.00,meteohub,2013-06-26 18:43:00,
2013-06-26 11:48:00,80.2,48.6,30.37,East,92,6.0,10.0,33,0.00,,,0.00,meteohub,2013-06-26 18:48:00,
2013-06-26 11:53:00,79.2,49.1,30.37,ENE,71,0.0,10.0,35,0.00,,,0.00,meteohub,2013-06-26 18:53:00,
2013-06-26 11:58:00,79.5,47.8,30.37,ESE,121,1.0,10.0,33,0.00,,,0.00,meteohub,2013-06-26 18:58:00,
2013-06-26 12:03:00,79.5,47.1,30.38,ESE,122,1.0,10.0,32,0.00,,,0.00,meteohub,2013-06-26 19:03:00,
2013-06-26 12:08:00,80.4,49.5,30.37,West,269,7.0,7.0,34,0.00,,,0.00,meteohub,2013-06-26 19:08:00,
2013-06-26 12:13:00,81.3,48.6,30.37,NNW,330,10.0,16.0,32,0.00,,,0.00,meteohub,2013-06-26 19:13:00,
2013-06-26 12:18:00,81.9,48.2,30.37,West,270,18.0,18.0,31,0.00,,,0.00,meteohub,2013-06-26 19:18:00,
2013-06-26 12:23:00,82.8,48.2,30.37,WSW,250,12.0,21.0,30,0.00,,,0.00,meteohub,2013-06-26 19:23:00,
2013-06-26 12:28:00,81.9,47.3,30.37,SSW,213,3.0,21.0,30,0.00,,,0.00,meteohub,2013-06-26 19:28:00,
2013-06-26 12:33:00,82.4,46.9,30.38,WSW,246,5.0,21.0,29,0.00,,,0.00,meteohub,2013-06-26 19:33:00,
2013-06-26 12:38:00,81.9,47.3,30.38,SW,214,12.0,22.0,30,0.00,,,0.00,meteohub,2013-06-26 19:38:00,
2013-06-26 12:43:00,81.7,48.0,30.38,South,187,9.0,22.0,31,0.00,,,0.00,meteohub,2013-06-26 19:43:00,
2013-06-26 12:48:00,82.4,48.7,30.38,South,189,5.0,22.0,31,0.00,,,0.00,meteohub,2013-06-26 19:48:00,
2013-06-26 12:53:00,83.8,49.1,30.38,WNW,296,13.0,20.0,30,0.00,,,0.00,meteohub,2013-06-26 19:53:00,
2013-06-26 12:58:00,82.6,48.0,30.38,NW,309,13.0,16.0,30,0.00,,,0.00,meteohub,2013-06-26 19:58:00,
2013-06-26 13:03:00,82.8,49.8,30.38,WNW,294,8.0,16.0,32,0.00,,,0.00,meteohub,2013-06-26 20:03:00,
2013-06-26 13:08:00,82.0,49.3,30.37,SW,223,9.0,16.0,32,0.00,,,0.00,meteohub,2013-06-26 20:08:00,
2013-06-26 13:14:00,82.8,49.1,30.38,WNW,298,11.0,17.0,31,0.00,,,0.00,meteohub,2013-06-26 20:14:00,
2013-06-26 13:19:00,83.3,50.4,30.38,SW,230,15.0,19.0,32,0.00,,,0.00,meteohub,2013-06-26 20:19:00,
2013-06-26 13:24:00,82.8,49.8,30.38,SW,232,6.0,19.0,32,0.00,,,0.00,meteohub,2013-06-26 20:24:00,
2013-06-26 13:29:00,81.7,48.9,30.38,NW,313,5.0,19.0,32,0.00,,,0.00,meteohub,2013-06-26 20:29:00,
2013-06-26 13:34:00,82.2,49.5,30.38,WSW,237,13.0,17.0,32,0.00,,,0.00,meteohub,2013-06-26 20:34:00,
2013-06-26 13:39:00,81.7,49.8,30.38,WNW,300,13.0,14.0,33,0.00,,,0.00,meteohub,2013-06-26 20:39:00,
2013-06-26 13:44:00,82.6,49.8,30.38,WNW,298,12.0,14.0,32,0.00,,,0.00,meteohub,2013-06-26 20:44:00,
2013-06-26 13:49:00,82.4,48.7,30.37,West,272,13.0,19.0,31,0.00,,,0.00,meteohub,2013-06-26 20:49:00,
2013-06-26 13:54:00,83.3,47.7,30.37,SSW,193,1.0,19.0,29,0.00,,,0.00,meteohub,2013-06-26 20:54:00,
2013-06-26 13:59:00,82.8,48.2,30.37,WSW,245,8.0,19.0,30,0.00,,,0.00,meteohub,2013-06-26 20:59:00,
2013-06-26 14:04:00,82.6,48.0,30.37,WNW,301,4.0,19.0,30,0.00,,,0.00,meteohub,2013-06-26 21:04:00,
2013-06-26 14:09:00,82.2,47.7,30.37,West,261,10.0,19.0,30,0.00,,,0.00,meteohub,2013-06-26 21:09:00,
2013-06-26 14:14:00,83.7,48.0,30.37,NW,307,9.0,19.0,29,0.00,,,0.00,meteohub,2013-06-26 21:14:00,
2013-06-26 14:19:00,82.8,48.2,30.37,WNW,293,13.0,21.0,30,0.00,,,0.00,meteohub,2013-06-26 21:19:00,
2013-06-26 14:24:00,82.6,48.0,30.37,WNW,302,10.0,23.0,30,0.00,,,0.00,meteohub,2013-06-26 21:24:00,
2013-06-26 14:29:00,84.0,47.5,30.37,WNW,292,12.0,23.0,28,0.00,,,0.00,meteohub,2013-06-26 21:29:00,
2013-06-26 14:34:00,83.8,46.2,30.37,West,263,1.0,23.0,27,0.00,,,0.00,meteohub,2013-06-26 21:34:00,
2013-06-26 14:39:00,84.4,48.7,30.37,SSW,205,6.0,16.0,29,0.00,,,0.00,meteohub,2013-06-26 21:39:00,
2013-06-26 14:44:00,84.0,47.5,30.37,South,188,8.0,15.0,28,0.00,,,0.00,meteohub,2013-06-26 21:44:00,
2013-06-26 14:49:00,84.4,47.7,30.37,SW,231,6.0,14.0,28,0.00,,,0.00,meteohub,2013-06-26 21:49:00,
2013-06-26 14:54:00,85.6,47.8,30.36,WNW,296,5.0,14.0,27,0.00,,,0.00,meteohub,2013-06-26 21:54:00,
2013-06-26 14:59:00,85.6,47.8,30.36,NNW,342,14.0,14.0,27,0.00,,,0.00,meteohub,2013-06-26 21:59:00,
2013-06-26 15:04:00,85.6,46.8,30.37,WSW,243,6.0,15.0,26,0.00,,,0.00,meteohub,2013-06-26 22:04:00,
2013-06-26 15:10:00,85.3,47.5,30.37,West,275,13.0,19.0,27,0.00,,,0.00,meteohub,2013-06-26 22:10:00,
2013-06-26 15:15:00,85.3,46.6,30.37,NW,320,5.0,19.0,26,0.00,,,0.00,meteohub,2013-06-26 22:15:00,
2013-06-26 15:20:00,83.3,46.8,30.37,NW,307,8.0,19.0,28,0.00,,,0.00,meteohub,2013-06-26 22:20:00,
2013-06-26 15:25:00,83.7,48.0,30.36,North,355,6.0,18.0,29,0.00,,,0.00,meteohub,2013-06-26 22:25:00,
2013-06-26 15:30:00,83.7,47.1,30.36,WNW,296,7.0,18.0,28,0.00,,,0.00,meteohub,2013-06-26 22:30:00,
2013-06-26 15:35:00,84.6,47.8,30.37,WNW,292,10.0,20.0,28,0.00,,,0.00,meteohub,2013-06-26 22:35:00,
2013-06-26 15:40:00,84.9,48.2,30.37,NW,316,14.0,20.0,28,0.00,,,0.00,meteohub,2013-06-26 22:40:00,
2013-06-26 15:45:00,84.9,48.2,30.37,SW,225,11.0,20.0,28,0.00,,,0.00,meteohub,2013-06-26 22:45:00,
2013-06-26 15:50:00,84.7,46.0,30.37,WNW,284,11.0,19.0,26,0.00,,,0.00,meteohub,2013-06-26 22:50:00,
2013-06-26 15:55:00,84.4,44.8,30.37,West,277,7.0,23.0,25,0.00,,,0.00,meteohub,2013-06-26 22:55:00,
2013-06-26 16:00:00,84.0,46.4,30.36,WSW,253,8.0,23.0,27,0.00,,,0.00,meteohub,2013-06-26 23:00:00,
2013-06-26 16:05:00,84.4,47.7,30.36,SW,229,5.0,23.0,28,0.00,,,0.00,meteohub,2013-06-26 23:05:00,
2013-06-26 16:10:00,84.7,47.1,30.36,WNW,287,9.0,21.0,27,0.00,,,0.00,meteohub,2013-06-26 23:10:00,
2013-06-26 16:15:00,85.3,47.5,30.36,WNW,302,12.0,21.0,27,0.00,,,0.00,meteohub,2013-06-26 23:15:00,
2013-06-26 16:20:00,85.5,45.7,30.36,WNW,294,12.0,18.0,25,0.00,,,0.00,meteohub,2013-06-26 23:20:00,
2013-06-26 16:25:00,85.5,45.7,30.36,West,260,11.0,17.0,25,0.00,,,0.00,meteohub,2013-06-26 23:25:00,
2013-06-26 16:30:00,85.3,46.6,30.36,West,275,7.0,23.0,26,0.00,,,0.00,meteohub,2013-06-26 23:30:00,
2013-06-26 16:35:00,85.1,46.4,30.36,SW,232,3.0,23.0,26,0.00,,,0.00,meteohub,2013-06-26 23:35:00,
2013-06-26 16:40:00,85.6,45.9,30.36,SSW,198,9.0,16.0,25,0.00,,,0.00,meteohub,2013-06-26 23:40:00,
2013-06-26 16:45:00,85.5,45.7,30.36,NW,307,3.0,16.0,25,0.00,,,0.00,meteohub,2013-06-26 23:45:00,
2013-06-26 16:50:00,85.5,46.6,30.36,West,261,0.0,16.0,26,0.00,,,0.00,meteohub,2013-06-26 23:50:00,
2013-06-26 16:56:00,85.1,46.4,30.35,WNW,287,14.0,18.0,26,0.00,,,0.00,meteohub,2013-06-26 23:56:00,
2013-06-26 17:01:00,84.4,44.8,30.36,East,90,6.0,18.0,25,0.00,,,0.00,meteohub,2013-06-27 00:01:00,
2013-06-26 17:06:00,84.0,44.4,30.36,ESE,110,4.0,18.0,25,0.00,,,0.00,meteohub,2013-06-27 00:06:00,
2013-06-26 17:11:00,83.8,47.3,30.35,NNW,336,14.0,17.0,28,0.00,,,0.00,meteohub,2013-06-27 00:11:00,
2013-06-26 17:16:00,82.8,47.3,30.35,SSW,197,7.0,18.0,29,0.00,,,0.00,meteohub,2013-06-27 00:16:00,
2013-06-26 17:21:00,82.8,43.3,30.36,SSE,161,2.0,27.0,25,0.00,,,0.00,meteohub,2013-06-27 00:21:00,
2013-06-26 17:26:00,83.1,48.6,30.36,NW,311,5.0,27.0,30,0.00,,,0.00,meteohub,2013-06-27 00:26:00,
2013-06-26 17:31:00,83.7,49.8,30.36,WNW,300,8.0,13.0,31,0.00,,,0.00,meteohub,2013-06-27 00:31:00,
2013-06-26 17:36:00,83.1,48.6,30.36,WNW,294,18.0,18.0,30,0.00,,,0.00,meteohub,2013-06-27 00:36:00,
2013-06-26 17:41:00,82.9,49.3,30.36,WNW,293,13.0,18.0,31,0.00,,,0.00,meteohub,2013-06-27 00:41:00,
2013-06-26 17:46:00,82.4,48.7,30.36,NNW,329,10.0,18.0,31,0.00,,,0.00,meteohub,2013-06-27 00:46:00,
2013-06-26 17:51:00,81.7,48.9,30.36,NNW,337,11.0,21.0,32,0.00,,,0.00,meteohub,2013-06-27 00:51:00,
2013-06-26 17:56:00,81.1,49.3,30.36,NNW,332,18.0,21.0,33,0.00,,,0.00,meteohub,2013-06-27 00:56:00,
2013-06-26 18:01:00,80.8,49.8,30.36,NW,308,10.0,21.0,34,0.00,,,0.00,meteohub,2013-06-27 01:01:00,
2013-06-26 18:06:00,80.6,48.9,30.36,WNW,302,13.0,22.0,33,0.00,,,0.00,meteohub,2013-06-27 01:06:00,
2013-06-26 18:11:00,80.1,49.1,30.36,NW,323,11.0,22.0,34,0.00,,,0.00,meteohub,2013-06-27 01:11:00,
2013-06-26 18:16:00,79.7,48.9,30.36,WNW,291,12.0,22.0,34,0.00,,,0.00,meteohub,2013-06-27 01:16:00,
2013-06-26 18:21:00,79.5,48.7,30.36,NW,307,17.0,21.0,34,0.00,,,0.00,meteohub,2013-06-27 01:21:00,
2013-06-26 18:26:00,79.3,48.6,30.36,NW,306,16.0,21.0,34,0.00,,,0.00,meteohub,2013-06-27 01:26:00,
2013-06-26 18:31:00,79.0,48.2,30.36,NW,311,19.0,21.0,34,0.00,,,0.00,meteohub,2013-06-27 01:31:00,
2013-06-26 18:36:00,78.4,48.6,30.36,WNW,295,21.0,23.0,35,0.00,,,0.00,meteohub,2013-06-27 01:36:00,
2013-06-26 18:41:00,78.1,48.2,30.37,West,264,14.0,23.0,35,0.00,,,0.00,meteohub,2013-06-27 01:41:00,
2013-06-26 18:46:00,78.1,48.9,30.37,WNW,300,8.0,23.0,36,0.00,,,0.00,meteohub,2013-06-27 01:46:00,
2013-06-26 18:51:00,77.9,48.7,30.37,WNW,303,10.0,21.0,36,0.00,,,0.00,meteohub,2013-06-27 01:51:00,
2013-06-26 18:56:00,77.5,46.2,30.37,West,273,9.0,18.0,33,0.00,,,0.00,meteohub,2013-06-27 01:56:00,
2013-06-26 19:01:00,77.4,49.1,30.37,WNW,299,15.0,18.0,37,0.00,,,0.00,meteohub,2013-06-27 02:01:00,
2013-06-26 19:06:00,77.2,48.9,30.37,WNW,292,10.0,18.0,37,0.00,,,0.00,meteohub,2013-06-27 02:06:00,
2013-06-26 19:11:00,76.6,48.4,30.37,WNW,286,19.0,19.0,37,0.00,,,0.00,meteohub,2013-06-27 02:11:00,
2013-06-26 19:16:00,76.5,48.9,30.38,NW,317,14.0,19.0,38,0.00,,,0.00,meteohub,2013-06-27 02:16:00,
2013-06-26 19:22:00,75.9,48.6,30.38,NW,308,8.0,20.0,38,0.00,,,0.00,meteohub,2013-06-27 02:22:00,
2013-06-26 19:27:00,75.7,48.4,30.38,NW,312,12.0,20.0,38,0.00,,,0.00,meteohub,2013-06-27 02:27:00,
2013-06-26 19:32:00,75.4,48.7,30.38,NNW,328,13.0,20.0,39,0.00,,,0.00,meteohub,2013-06-27 02:32:00,
2013-06-26 19:37:00,75.0,48.4,30.38,NW,319,11.0,20.0,39,0.00,,,0.00,meteohub,2013-06-27 02:37:00,
2013-06-26 19:42:00,74.8,48.2,30.38,WNW,292,10.0,20.0,39,0.00,,,0.00,meteohub,2013-06-27 02:42:00,
2013-06-26 19:47:00,74.7,48.7,30.38,NW,308,12.0,22.0,40,0.00,,,0.00,meteohub,2013-06-27 02:47:00,
2013-06-26 19:52:00,74.1,48.2,30.38,WNW,300,18.0,23.0,40,0.00,,,0.00,meteohub,2013-06-27 02:52:00,
2013-06-26 19:57:00,73.9,48.0,30.38,WNW,302,16.0,23.0,40,0.00,,,0.00,meteohub,2013-06-27 02:57:00,
2013-06-26 20:02:00,73.8,48.0,30.38,NW,319,17.0,23.0,40,0.00,,,0.00,meteohub,2013-06-27 03:02:00,
2013-06-26 20:04:00,73.6,48.4,30.38,NW,317,10.0,23.0,41,0.00,,,0.00,meteohub,2013-06-27 03:04:00,
2013-06-26 20:09:00,73.2,48.0,30.38,WNW,299,13.0,22.0,41,0.00,,,0.00,meteohub,2013-06-27 03:09:00,
2013-06-26 20:14:00,72.9,48.4,30.38,NW,314,11.0,19.0,42,0.00,,,0.00,meteohub,2013-06-27 03:14:00,
2013-06-26 20:19:00,72.5,48.7,30.38,WNW,297,7.0,19.0,43,0.00,,,0.00,meteohub,2013-06-27 03:19:00,
2013-06-26 20:24:00,72.1,48.4,30.38,NW,313,17.0,18.0,43,0.00,,,0.00,meteohub,2013-06-27 03:24:00,
2013-06-26 20:29:00,72.0,48.2,30.38,WNW,296,18.0,21.0,43,0.00,,,0.00,meteohub,2013-06-27 03:29:00,
2013-06-26 20:34:00,71.8,48.0,30.38,NW,323,17.0,21.0,43,0.00,,,0.00,meteohub,2013-06-27 03:34:00,
2013-06-26 20:39:00,71.4,48.4,30.38,WNW,292,11.0,21.0,44,0.00,,,0.00,meteohub,2013-06-27 03:39:00,
2013-06-26 20:44:00,71.1,48.6,30.38,NW,315,8.0,22.0,45,0.00,,,0.00,meteohub,2013-06-27 03:44:00,
2013-06-26 20:49:00,70.7,48.4,30.38,WNW,286,15.0,24.0,45,0.00,,,0.00,meteohub,2013-06-27 03:49:00,
2013-06-26 20:54:00,70.3,48.6,30.38,WNW,293,13.0,24.0,46,0.00,,,0.00,meteohub,2013-06-27 03:54:00,
2013-06-26 20:59:00,70.2,48.4,30.39,WNW,300,11.0,24.0,46,0.00,,,0.00,meteohub,2013-06-27 03:59:00,
2013-06-26 21:01:00,70.2,48.4,30.39,NW,315,5.0,19.0,46,0.00,,,0.00,meteohub,2013-06-27 04:01:00,
2013-06-26 21:02:00,70.2,48.4,30.39,WNW,294,12.0,19.0,46,0.00,,,0.00,meteohub,2013-06-27 04:02:00,
2013-06-26 21:07:00,69.8,48.7,30.39,NW,314,8.0,19.0,47,0.00,,,0.00,meteohub,2013-06-27 04:07:00,
2013-06-26 21:10:00,69.6,48.6,30.39,NW,321,4.0,19.0,47,0.00,,,0.00,meteohub,2013-06-27 04:10:00,
2013-06-26 21:12:00,69.4,48.4,30.39,NW,306,9.0,19.0,47,0.00,,,0.00,meteohub,2013-06-27 04:12:00,
2013-06-26 21:17:00,69.3,47.7,30.40,NW,313,10.0,19.0,46,0.00,,,0.00,meteohub,2013-06-27 04:17:00,
2013-06-26 21:22:00,69.1,48.0,30.40,NW,314,5.0,13.0,47,0.00,,,0.00,meteohub,2013-06-27 04:22:00,
2013-06-26 21:27:00,68.9,48.4,30.40,NW,309,10.0,13.0,48,0.00,,,0.00,meteohub,2013-06-27 04:27:00,
2013-06-26 21:32:00,68.5,49.1,30.40,NW,314,10.0,15.0,50,0.00,,,0.00,meteohub,2013-06-27 04:32:00,
2013-06-26 21:37:00,68.5,49.1,30.41,NW,325,12.0,15.0,50,0.00,,,0.00,meteohub,2013-06-27 04:37:00,
2013-06-26 21:42:00,68.4,48.9,30.41,NW,317,13.0,15.0,50,0.00,,,0.00,meteohub,2013-06-27 04:42:00,
2013-06-26 21:47:00,68.2,48.9,30.41,NW,309,10.0,14.0,50,0.00,,,0.00,meteohub,2013-06-27 04:47:00,
2013-06-26 21:52:00,68.0,48.7,30.41,NW,311,13.0,14.0,50,0.00,,,0.00,meteohub,2013-06-27 04:52:00,
2013-06-26 21:57:00,68.0,48.7,30.41,NW,315,8.0,14.0,50,0.00,,,0.00,meteohub,2013-06-27 04:57:00,
2013-06-26 22:03:00,67.8,48.0,30.42,NW,306,9.0,16.0,49,0.00,,,0.00,meteohub,2013-06-27 05:03:00,
2013-06-26 22:08:00,67.8,47.5,30.41,NW,308,8.0,16.0,48,0.00,,,0.00,meteohub,2013-06-27 05:08:00,
2013-06-26 22:13:00,67.6,47.3,30.42,WNW,285,9.0,16.0,48,0.00,,,0.00,meteohub,2013-06-27 05:13:00,
2013-06-26 22:18:00,67.6,47.3,30.42,WNW,298,4.0,15.0,48,0.00,,,0.00,meteohub,2013-06-27 05:18:00,
2013-06-26 22:23:00,67.6,47.8,30.42,NW,311,6.0,14.0,49,0.00,,,0.00,meteohub,2013-06-27 05:23:00,
2013-06-26 22:28:00,67.5,47.7,30.42,NW,306,8.0,12.0,49,0.00,,,0.00,meteohub,2013-06-27 05:28:00,
2013-06-26 22:33:00,67.1,47.3,30.42,NW,304,14.0,14.0,49,0.00,,,0.00,meteohub,2013-06-27 05:33:00,
2013-06-26 22:38:00,67.1,47.3,30.42,WNW,292,10.0,15.0,49,0.00,,,0.00,meteohub,2013-06-27 05:38:00,
2013-06-26 22:43:00,66.9,47.1,30.42,WNW,288,5.0,18.0,49,0.00,,,0.00,meteohub,2013-06-27 05:43:00,
2013-06-26 22:48:00,67.1,47.3,30.42,WNW,284,12.0,18.0,49,0.00,,,0.00,meteohub,2013-06-27 05:48:00,
2013-06-26 22:53:00,66.9,47.1,30.42,NW,307,8.0,18.0,49,0.00,,,0.00,meteohub,2013-06-27 05:53:00,
2013-06-26 22:58:00,66.9,47.1,30.42,NW,307,10.0,14.0,49,0.00,,,0.00,meteohub,2013-06-27 05:58:00,
2013-06-26 23:03:00,66.7,45.9,30.43,WNW,297,7.0,14.0,47,0.00,,,0.00,meteohub,2013-06-27 06:03:00,
2013-06-26 23:08:00,66.7,45.9,30.42,WNW,284,8.0,14.0,47,0.00,,,0.00,meteohub,2013-06-27 06:08:00,
2013-06-26 23:13:00,66.6,45.1,30.43,WNW,297,5.0,14.0,46,0.00,,,0.00,meteohub,2013-06-27 06:13:00,
2013-06-26 23:18:00,66.4,44.4,30.43,NW,313,9.0,11.0,45,0.00,,,0.00,meteohub,2013-06-27 06:18:00,
2013-06-26 23:23:00,66.0,44.1,30.42,WNW,302,7.0,11.0,45,0.00,,,0.00,meteohub,2013-06-27 06:23:00,
2013-06-26 23:28:00,66.0,43.5,30.43,NW,304,8.0,11.0,44,0.00,,,0.00,meteohub,2013-06-27 06:28:00,
2013-06-26 23:33:00,66.0,43.5,30.43,NW,306,7.0,11.0,44,0.00,,,0.00,meteohub,2013-06-27 06:33:00,
2013-06-26 23:38:00,66.0,43.5,30.43,NW,308,8.0,11.0,44,0.00,,,0.00,meteohub,2013-06-27 06:38:00,
2013-06-26 23:43:00,66.0,43.5,30.43,NW,312,6.0,10.0,44,0.00,,,0.00,meteohub,2013-06-27 06:43:00,
2013-06-26 23:48:00,65.8,42.8,30.43,NW,305,8.0,10.0,43,0.00,,,0.00,meteohub,2013-06-27 06:48:00,
2013-06-26 23:53:00,65.8,42.8,30.43,NW,317,4.0,10.0,43,0.00,,,0.00,meteohub,2013-06-27 06:53:00,
2013-06-26 23:58:00,65.8,42.8,30.43,WNW,289,5.0,11.0,43,0.00,,,0.00,meteohub,2013-06-27 06:58:00,